createdAt,value
2023-03-23T15:59:22.826Z,97251.16
2023-03-23T16:01:56.110Z,97261.38
2023-03-23T16:04:29.638Z,97252.97
2023-03-23T16:07:02.666Z,97248.72
2023-03-23T16:09:37.111Z,97257.06
2023-03-23T16:12:14.073Z,97261.88
2023-03-23T16:14:47.107Z,97261.06
2023-03-23T16:17:21.866Z,97261.06
2023-03-23T16:19:54.905Z,97263.78
2023-03-23T16:22:28.021Z,97257.69
2023-03-23T16:25:02.416Z,97265.69
2023-03-23T16:27:35.471Z,97262.91
2023-03-23T16:30:17.392Z,97263.06
2023-03-23T16:32:50.553Z,97266.56
2023-03-23T16:35:24.618Z,97263.75
2023-03-23T16:38:07.750Z,97263.66
2023-03-23T16:40:44.061Z,97267.03
2023-03-23T16:43:17.477Z,97267.72
2023-03-23T16:45:50.601Z,97260.81
2023-03-23T16:48:23.909Z,97267.59
2023-03-23T16:50:57.502Z,97266.69
2023-03-23T16:53:30.552Z,97271.91
2023-03-23T16:56:06.047Z,97270.25
2023-03-23T16:58:39.156Z,97268.16
2023-03-23T17:01:12.242Z,97285.34
2023-03-23T17:03:45.661Z,97273.00
2023-03-23T17:06:18.824Z,97279.09
2023-03-23T17:08:51.843Z,97273.13
2023-03-23T17:11:26.308Z,97281.59
2023-03-23T17:13:59.352Z,97280.56
2023-03-23T17:16:32.819Z,97277.72
2023-03-23T17:19:07.116Z,97280.16
2023-03-23T17:21:40.096Z,97278.31
2023-03-23T17:24:13.116Z,97273.00
2023-03-23T17:26:47.502Z,97272.97
2023-03-23T17:29:22.381Z,97270.22
2023-03-23T17:31:55.681Z,97260.63
2023-03-23T17:34:28.690Z,97260.50
2023-03-23T17:37:01.720Z,97257.88
2023-03-23T17:39:43.195Z,97253.44
2023-03-23T17:42:18.750Z,97251.66
2023-03-23T17:44:51.743Z,97248.25
2023-03-23T17:47:24.832Z,97252.69
2023-03-23T17:49:57.861Z,97247.41
2023-03-23T17:52:30.878Z,97250.41
2023-03-23T17:55:04.081Z,97249.69
2023-03-23T17:57:38.482Z,97256.19
2023-03-23T18:00:12.888Z,97252.44
2023-03-23T18:02:45.985Z,97266.84
2023-03-23T18:05:19.142Z,97251.09
2023-03-23T18:07:52.223Z,97256.16
2023-03-23T18:10:25.283Z,97261.19
2023-03-23T18:12:59.645Z,97262.72
2023-03-23T18:15:33.625Z,97254.97
2023-03-23T18:18:07.095Z,97255.78
2023-03-23T18:20:40.197Z,97261.63
2023-03-23T18:23:13.850Z,97266.69
2023-03-23T18:25:46.895Z,97267.44
2023-03-23T18:28:21.545Z,97267.41
2023-03-23T18:30:54.558Z,97271.59
2023-03-23T18:33:27.703Z,97271.44
2023-03-23T18:36:02.149Z,97261.84
2023-03-23T18:38:36.542Z,97258.19
2023-03-23T18:41:11.906Z,97269.50
2023-03-23T18:43:47.673Z,97264.22
2023-03-23T18:46:21.112Z,97267.53
2023-03-23T18:48:54.189Z,97270.97
2023-03-23T18:51:27.312Z,97271.75
2023-03-23T18:54:00.377Z,97269.03
2023-03-23T18:56:33.489Z,97263.00
2023-03-23T18:59:07.951Z,97268.22
2023-03-23T19:01:41.059Z,97269.94
2023-03-23T19:04:14.565Z,97269.03
2023-03-23T19:06:47.585Z,97269.69
2023-03-23T19:09:20.636Z,97268.84
2023-03-23T19:11:53.661Z,97269.69
2023-03-23T19:14:28.360Z,97262.72
2023-03-23T19:17:01.499Z,97262.69
2023-03-23T19:19:34.683Z,97262.66
2023-03-23T19:22:08.961Z,97265.16
2023-03-23T19:24:42.078Z,97271.03
2023-03-23T19:27:15.537Z,97266.72
2023-03-23T19:29:51.032Z,97267.63
2023-03-23T19:32:24.828Z,97270.25
2023-03-23T19:34:59.073Z,97269.38
2023-03-23T19:37:34.669Z,97266.78
2023-03-23T19:40:34.932Z,97272.78
2023-03-23T19:43:05.510Z,97271.91
2023-03-23T19:45:41.828Z,97275.31
2023-03-23T19:48:16.107Z,97269.34
2023-03-23T19:50:53.020Z,97271.00
2023-03-23T19:53:27.159Z,97261.63
2023-03-23T19:56:01.018Z,97273.41
2023-03-23T19:58:35.407Z,97266.47
2023-03-23T20:01:10.437Z,97269.03
2023-03-23T20:03:44.560Z,97274.66
2023-03-23T20:06:18.231Z,97265.03
2023-03-23T20:08:51.327Z,97260.97
2023-03-23T20:11:24.481Z,97272.44
2023-03-23T20:13:58.096Z,97267.56
2023-03-23T20:16:32.893Z,97263.28
2023-03-23T20:19:06.025Z,97267.44
2023-03-23T20:21:39.693Z,97264.78
2023-03-23T20:24:13.025Z,97258.03
2023-03-23T20:26:47.624Z,97265.78
2023-03-23T20:29:21.007Z,97264.78
2023-03-23T20:31:55.500Z,97262.00
2023-03-23T20:34:31.647Z,97270.66
2023-03-23T20:37:04.779Z,97268.22
2023-03-23T20:39:37.806Z,97262.84
2023-03-23T20:42:11.408Z,97261.03
2023-03-23T20:44:44.619Z,97264.38
2023-03-23T20:47:19.362Z,97254.00
2023-03-23T20:49:53.822Z,97258.19
2023-03-23T20:52:27.668Z,97261.53
2023-03-23T20:55:00.880Z,97258.88
2023-03-23T20:57:34.540Z,97252.78
2023-03-23T21:00:10.176Z,97254.47
2023-03-23T21:02:44.704Z,97256.00
2023-03-23T21:05:18.086Z,97249.84
2023-03-23T21:07:51.274Z,97246.34
2023-03-23T21:10:25.709Z,97249.63
2023-03-23T21:12:58.752Z,97244.41
2023-03-23T21:15:32.257Z,97240.91
2023-03-23T21:18:07.278Z,97236.41
2023-03-23T21:20:40.565Z,97233.75
2023-03-23T21:23:14.834Z,97225.13
2023-03-23T21:25:49.291Z,97218.31
2023-03-23T21:28:22.664Z,97219.00
2023-03-23T21:30:55.924Z,97211.81
2023-03-23T21:33:30.407Z,97214.56
2023-03-23T21:36:03.880Z,97205.66
2023-03-23T21:38:38.215Z,97207.13
2023-03-23T21:41:14.232Z,97201.72
2023-03-23T21:43:47.345Z,97205.06
2023-03-23T21:46:20.811Z,97204.75
2023-03-23T21:48:55.394Z,97196.00
2023-03-23T21:51:30.287Z,97189.97
2023-03-23T21:54:03.333Z,97184.56
2023-03-23T21:56:36.838Z,97182.78
2023-03-23T21:59:09.941Z,97180.97
2023-03-23T22:01:43.039Z,97177.44
2023-03-23T22:04:17.650Z,97174.72
2023-03-23T22:06:50.981Z,97166.19
2023-03-23T22:09:24.123Z,97162.66
2023-03-23T22:11:57.785Z,97159.09
2023-03-23T22:14:31.018Z,97157.72
2023-03-23T22:17:04.086Z,97152.13
2023-03-23T22:19:39.338Z,97147.94
2023-03-23T22:22:12.386Z,97149.81
2023-03-23T22:24:45.376Z,97142.81
2023-03-23T22:27:18.432Z,97141.97
2023-03-23T22:29:52.042Z,97139.31
2023-03-23T22:32:25.415Z,97126.53
2023-03-23T22:35:00.162Z,97131.59
2023-03-23T22:37:33.982Z,97120.31
2023-03-23T22:40:09.531Z,97117.59
2023-03-23T22:42:42.707Z,97114.19
2023-03-23T22:45:15.929Z,97111.63
2023-03-23T22:47:49.000Z,97097.16
2023-03-23T22:50:24.248Z,97094.63
2023-03-23T22:52:57.420Z,97094.13
2023-03-23T22:55:30.582Z,97086.22
2023-03-23T22:58:03.619Z,97083.66
2023-03-23T23:00:36.685Z,97079.88
2023-03-23T23:03:09.763Z,97080.72
2023-03-23T23:05:46.451Z,97058.66
2023-03-23T23:08:19.977Z,97056.06
2023-03-23T23:10:55.952Z,97055.28
2023-03-23T23:13:31.864Z,97069.19
2023-03-23T23:16:07.445Z,97059.50
2023-03-23T23:18:41.299Z,97058.72
2023-03-23T23:21:19.592Z,97063.75
2023-03-23T23:23:52.606Z,97061.19
2023-03-23T23:26:25.798Z,97060.97
2023-03-23T23:28:58.860Z,97060.09
2023-03-23T23:31:33.766Z,97052.19
2023-03-23T23:34:07.298Z,97055.66
2023-03-23T23:36:42.230Z,97062.66
2023-03-23T23:39:15.469Z,97057.44
2023-03-23T23:41:48.896Z,97058.38
2023-03-23T23:44:21.917Z,97060.69
2023-03-23T23:46:57.610Z,97063.22
2023-03-23T23:49:32.715Z,97064.84
2023-03-23T23:52:08.557Z,97054.66
2023-03-23T23:54:42.550Z,97072.41
2023-03-23T23:57:16.653Z,97090.38
2023-03-23T23:59:51.376Z,97098.91
